Ana Sayfa
METAR-TAF:

METAR-TAF

Havaalanları :

Xi'an Xianyang Uluslararası Havalimanı

Xi'an, Çin

Enlem: 34-26N, Boylam: 108-45E, yükseklik: 479 m

Güncel hava durumu gözlemi

Rapor saat 14:00 UTC de 31 dakika önce yapıldı.
Rüzgar doğu/kuzeydoğudan 14 kt
Sıcaklık 31°C
Nem 59%
Basınç 1003 hPa
Görüş mesafesi 10 km veya daha fazla
1500 m altında bulut yok ve kümülonimbus yok

METAR: ZLXY 221400Z 06007MPS CAVOK 31/22 Q1003 NOSIG

Saat: 22:31 (14:31 UTC)

Tahmin

Rapor saat 09:06 UTC de 5 saat ve 25 dakika önce yapıldı.
Ayın 22'si saat 12 UTC'den ayın 23'si saat 12 UTC'ye kadar geçerli Tahmin
Rüzgar doğu/kuzeydoğudan 8 kt ve 17 kt'a kadar ani rüzgarlar
Görüş mesafesi: 4000 m
Toz Pusu

TAF: ZLXY 220906Z 2212/2312 06004G09MPS 4000 HZ NSC TX38/2308Z TN28/2221Z

4.000'den fazla havaalanı için hava durumu gözlemleri ve tahminleri (METAR ve TAF raporları).

Kullanılabilir istasyonlar harita üzerinde sarı ve kırmızı noktalarla gösterilir.

İstasyonun adını görmek için fareyi noktanın üzerinde gezdirin.

Sonrasında hava gözlem ve tahminlerini görmek için tıklayın.

Haritayı değiştirmek için: yaklaştırmak için siyah artı işaretli yeşil düğmeye ve uzaklaştırmak için de eksi işaretli düğmeye hızla tıklayın; bitişik haritalar için yeşil okları kullanın.


METAR-TAF: